Gwangju Airport


Codes: RKJJ/KWJ
Name: Gwangju Airport
City: Gwangju
Country: South Korea
Elevation: 39 ft.
Website:
Wikipedia:

Photos at Gwangju Airport


   Photos courtesy of SpottingLog. You can add your own sightings and photos by signing up for a free trial today.



No photos found.

Weather at Gwangju Airport


Time (UTC)DescriptionTempratureWindCloud coverageVisibilityPressureHumidity
23-May-2024 21:00Clear Sky15°C2 mph, N0%10000m1011hPa77%
24-May-2024 00:00Clear Sky18°C7 mph, N0%10000m1011hPa69%
24-May-2024 03:00Clear Sky24°C4 mph, N1%10000m1012hPa49%
24-May-2024 06:00Clear Sky30°C7 mph, NW0%10000m1010hPa34%
24-May-2024 09:00Clear Sky25°C7 mph, W0%10000m1011hPa58%
24-May-2024 12:00Clear Sky19°C4 mph, S0%10000m1014hPa78%
24-May-2024 15:00Clear Sky16°C4 mph, SE5%10000m1015hPa89%
24-May-2024 18:00Scattered Clouds15°C2 mph, SE32%10000m1015hPa87%
24-May-2024 21:00Clear Sky15°C2 mph, E9%10000m1016hPa86%
25-May-2024 00:00Clear Sky22°C4 mph, SE10%10000m1016hPa61%
25-May-2024 03:00Broken Clouds26°C7 mph, SE84%10000m1015hPa52%
25-May-2024 06:00Overcast Clouds27°C9 mph, S86%10000m1014hPa50%
25-May-2024 09:00Broken Clouds23°C4 mph, S78%10000m1014hPa64%
25-May-2024 12:00Broken Clouds18°C4 mph, SE56%10000m1015hPa73%
25-May-2024 15:00Clear Sky16°C4 mph, SE9%10000m1014hPa72%
25-May-2024 18:00Scattered Clouds15°C4 mph, E33%10000m1013hPa68%
25-May-2024 21:00Overcast Clouds15°C4 mph, SE100%10000m1012hPa67%
26-May-2024 00:00Overcast Clouds21°C9 mph, SE100%10000m1011hPa47%
26-May-2024 03:00Overcast Clouds26°C13 mph, SE97%10000m1008hPa51%
26-May-2024 06:00Overcast Clouds25°C13 mph, S98%10000m1005hPa56%
26-May-2024 09:00Light Rain20°C11 mph, S100%7881m1003hPa92%
26-May-2024 12:00Moderate Rain20°C9 mph, SW100%6497m1002hPa96%
26-May-2024 15:00Moderate Rain20°C11 mph, SW100%424m1001hPa98%
26-May-2024 18:00Light Rain18°C7 mph, W100%4684m1002hPa98%
26-May-2024 21:00Overcast Clouds18°C7 mph, NW100%10000m1002hPa95%
27-May-2024 00:00Overcast Clouds19°C13 mph, NW100%10000m1004hPa68%
27-May-2024 03:00Broken Clouds20°C16 mph, NW78%10000m1004hPa52%
27-May-2024 06:00Scattered Clouds19°C18 mph, NW40%10000m1004hPa57%
27-May-2024 09:00Clear Sky17°C13 mph, NW10%10000m1004hPa66%
27-May-2024 12:00Scattered Clouds15°C9 mph, NW26%10000m1006hPa76%
27-May-2024 15:00Clear Sky14°C9 mph, NW3%10000m1006hPa82%
27-May-2024 18:00Clear Sky13°C2 mph, W5%10000m1007hPa93%
27-May-2024 21:00Clear Sky13°C2 mph, NW0%10000m1008hPa94%
28-May-2024 00:00Clear Sky20°C16 mph, N0%10000m1009hPa47%
28-May-2024 03:00Clear Sky23°C16 mph, N0%10000m1008hPa35%
28-May-2024 06:00Clear Sky23°C13 mph, N0%10000m1008hPa35%
28-May-2024 09:00Clear Sky21°C9 mph, NW0%10000m1008hPa49%
28-May-2024 12:00Clear Sky15°C4 mph, NW0%10000m1010hPa69%
28-May-2024 15:00Clear Sky13°C2 mph, NE0%10000m1011hPa71%
28-May-2024 18:00Clear Sky12°C4 mph, NE0%10000m1011hPa68%